sensor_id;sensor_type;location;lat;lon;timestamp;P1;durP1;ratioP1;P2;durP2;ratioP2
38479;SDS011;62333;51.980;5.934;2023-04-06T00:01:27;5.78;;;3.00;;
38479;SDS011;62333;51.980;5.934;2023-04-06T00:03:52;4.60;;;2.55;;
38479;SDS011;62333;51.980;5.934;2023-04-06T00:06:18;6.13;;;3.03;;
38479;SDS011;62333;51.980;5.934;2023-04-06T00:08:44;5.85;;;2.50;;
38479;SDS011;62333;51.980;5.934;2023-04-06T00:11:09;5.55;;;2.72;;
38479;SDS011;62333;51.980;5.934;2023-04-06T00:13:35;5.78;;;2.85;;
38479;SDS011;62333;51.980;5.934;2023-04-06T00:16:01;9.65;;;3.45;;
38479;SDS011;62333;51.980;5.934;2023-04-06T00:18:27;7.13;;;3.38;;
38479;SDS011;62333;51.980;5.934;2023-04-06T00:20:52;6.75;;;3.10;;
38479;SDS011;62333;51.980;5.934;2023-04-06T00:23:18;6.78;;;2.63;;
38479;SDS011;62333;51.980;5.934;2023-04-06T00:25:44;5.93;;;2.92;;
38479;SDS011;62333;51.980;5.934;2023-04-06T00:28:09;7.18;;;3.53;;
38479;SDS011;62333;51.980;5.934;2023-04-06T00:30:35;6.75;;;3.20;;
38479;SDS011;62333;51.980;5.934;2023-04-06T00:33:01;5.60;;;2.88;;
38479;SDS011;62333;51.980;5.934;2023-04-06T00:35:26;4.43;;;2.03;;
38479;SDS011;62333;51.980;5.934;2023-04-06T00:37:52;7.57;;;3.47;;
38479;SDS011;62333;51.980;5.934;2023-04-06T00:40:18;5.55;;;2.60;;
38479;SDS011;62333;51.980;5.934;2023-04-06T00:42:44;7.53;;;2.83;;
38479;SDS011;62333;51.980;5.934;2023-04-06T00:45:10;7.13;;;3.80;;
38479;SDS011;62333;51.980;5.934;2023-04-06T00:47:35;7.05;;;3.60;;
38479;SDS011;62333;51.980;5.934;2023-04-06T00:50:01;5.43;;;2.60;;
38479;SDS011;62333;51.980;5.934;2023-04-06T00:52:27;7.25;;;3.05;;
38479;SDS011;62333;51.980;5.934;2023-04-06T00:54:53;8.43;;;3.55;;
38479;SDS011;62333;51.980;5.934;2023-04-06T00:57:19;7.47;;;3.47;;
38479;SDS011;62333;51.980;5.934;2023-04-06T00:59:44;6.88;;;4.05;;
38479;SDS011;62333;51.980;5.934;2023-04-06T01:02:11;7.07;;;3.65;;
38479;SDS011;62333;51.980;5.934;2023-04-06T01:04:37;5.30;;;3.08;;
38479;SDS011;62333;51.980;5.934;2023-04-06T01:07:02;8.95;;;3.78;;
38479;SDS011;62333;51.980;5.934;2023-04-06T01:09:28;6.97;;;3.08;;
38479;SDS011;62333;51.980;5.934;2023-04-06T01:11:57;8.88;;;3.58;;
38479;SDS011;62333;51.980;5.934;2023-04-06T01:14:23;6.75;;;3.35;;
38479;SDS011;62333;51.980;5.934;2023-04-06T01:16:50;5.68;;;3.28;;
38479;SDS011;62333;51.980;5.934;2023-04-06T01:19:16;5.57;;;2.58;;
38479;SDS011;62333;51.980;5.934;2023-04-06T01:21:42;5.88;;;3.75;;
38479;SDS011;62333;51.980;5.934;2023-04-06T01:24:08;6.65;;;3.25;;
38479;SDS011;62333;51.980;5.934;2023-04-06T01:26:35;5.90;;;3.10;;
38479;SDS011;62333;51.980;5.934;2023-04-06T01:29:02;5.43;;;2.95;;
38479;SDS011;62333;51.980;5.934;2023-04-06T01:31:28;5.22;;;2.42;;
38479;SDS011;62333;51.980;5.934;2023-04-06T01:33:54;6.45;;;2.75;;
38479;SDS011;62333;51.980;5.934;2023-04-06T01:36:20;7.25;;;3.63;;
38479;SDS011;62333;51.980;5.934;2023-04-06T01:38:46;7.55;;;3.17;;
38479;SDS011;62333;51.980;5.934;2023-04-06T01:41:12;5.57;;;2.70;;
38479;SDS011;62333;51.980;5.934;2023-04-06T01:43:38;8.05;;;3.75;;
38479;SDS011;62333;51.980;5.934;2023-04-06T01:46:04;5.75;;;2.75;;
38479;SDS011;62333;51.980;5.934;2023-04-06T01:48:30;7.88;;;3.13;;
38479;SDS011;62333;51.980;5.934;2023-04-06T01:50:56;5.30;;;2.63;;
38479;SDS011;62333;51.980;5.934;2023-04-06T01:53:22;6.22;;;3.28;;
38479;SDS011;62333;51.980;5.934;2023-04-06T01:55:47;5.43;;;2.33;;
38479;SDS011;62333;51.980;5.934;2023-04-06T01:58:13;7.18;;;3.25;;
38479;SDS011;62333;51.980;5.934;2023-04-06T02:00:39;8.00;;;2.90;;
38479;SDS011;62333;51.980;5.934;2023-04-06T02:03:05;5.95;;;2.67;;
38479;SDS011;62333;51.980;5.934;2023-04-06T02:05:32;7.50;;;2.85;;
38479;SDS011;62333;51.980;5.934;2023-04-06T02:08:02;5.75;;;3.28;;
38479;SDS011;62333;51.980;5.934;2023-04-06T02:10:30;5.10;;;2.67;;
38479;SDS011;62333;51.980;5.934;2023-04-06T02:12:56;5.78;;;2.97;;
38479;SDS011;62333;51.980;5.934;2023-04-06T02:15:22;5.75;;;2.92;;
38479;SDS011;62333;51.980;5.934;2023-04-06T02:17:47;7.68;;;3.63;;
38479;SDS011;62333;51.980;5.934;2023-04-06T02:20:13;7.45;;;3.53;;
38479;SDS011;62333;51.980;5.934;2023-04-06T02:22:39;6.07;;;3.72;;
38479;SDS011;62333;51.980;5.934;2023-04-06T02:25:05;6.93;;;2.90;;
38479;SDS011;62333;51.980;5.934;2023-04-06T02:27:31;6.55;;;3.17;;
38479;SDS011;62333;51.980;5.934;2023-04-06T02:29:57;6.28;;;2.67;;
38479;SDS011;62333;51.980;5.934;2023-04-06T02:32:22;5.03;;;2.20;;
38479;SDS011;62333;51.980;5.934;2023-04-06T02:34:48;6.90;;;2.78;;
38479;SDS011;62333;51.980;5.934;2023-04-06T02:37:14;8.35;;;3.53;;
38479;SDS011;62333;51.980;5.934;2023-04-06T02:39:40;5.88;;;2.75;;
38479;SDS011;62333;51.980;5.934;2023-04-06T02:42:06;7.30;;;3.53;;
38479;SDS011;62333;51.980;5.934;2023-04-06T02:44:33;5.65;;;3.38;;
38479;SDS011;62333;51.980;5.934;2023-04-06T02:46:59;7.38;;;3.95;;
38479;SDS011;62333;51.980;5.934;2023-04-06T02:49:25;5.30;;;3.08;;
38479;SDS011;62333;51.980;5.934;2023-04-06T02:51:50;8.95;;;3.00;;
38479;SDS011;62333;51.980;5.934;2023-04-06T02:54:16;5.40;;;2.60;;
38479;SDS011;62333;51.980;5.934;2023-04-06T02:56:42;5.22;;;2.58;;
38479;SDS011;62333;51.980;5.934;2023-04-06T02:59:08;8.13;;;3.20;;
38479;SDS011;62333;51.980;5.934;2023-04-06T03:01:34;6.35;;;3.72;;
38479;SDS011;62333;51.980;5.934;2023-04-06T03:04:01;4.95;;;3.08;;
38479;SDS011;62333;51.980;5.934;2023-04-06T03:06:27;6.82;;;3.80;;
38479;SDS011;62333;51.980;5.934;2023-04-06T03:08:52;5.45;;;3.10;;
38479;SDS011;62333;51.980;5.934;2023-04-06T03:11:18;5.90;;;3.35;;
38479;SDS011;62333;51.980;5.934;2023-04-06T03:13:44;7.53;;;3.33;;
38479;SDS011;62333;51.980;5.934;2023-04-06T03:16:10;5.35;;;3.35;;
38479;SDS011;62333;51.980;5.934;2023-04-06T03:18:35;6.93;;;3.47;;
38479;SDS011;62333;51.980;5.934;2023-04-06T03:21:01;7.07;;;3.42;;
38479;SDS011;62333;51.980;5.934;2023-04-06T03:23:27;8.70;;;3.90;;
38479;SDS011;62333;51.980;5.934;2023-04-06T03:25:53;5.97;;;3.65;;
38479;SDS011;62333;51.980;5.934;2023-04-06T03:28:18;5.57;;;3.33;;
38479;SDS011;62333;51.980;5.934;2023-04-06T03:30:44;7.10;;;3.25;;
38479;SDS011;62333;51.980;5.934;2023-04-06T03:33:10;7.32;;;3.78;;
38479;SDS011;62333;51.980;5.934;2023-04-06T03:35:36;6.40;;;3.45;;
38479;SDS011;62333;51.980;5.934;2023-04-06T03:38:02;7.32;;;3.25;;
38479;SDS011;62333;51.980;5.934;2023-04-06T03:40:29;6.32;;;3.58;;
38479;SDS011;62333;51.980;5.934;2023-04-06T03:42:55;7.13;;;2.83;;
38479;SDS011;62333;51.980;5.934;2023-04-06T03:45:21;5.70;;;3.05;;
38479;SDS011;62333;51.980;5.934;2023-04-06T03:47:46;7.38;;;3.10;;
38479;SDS011;62333;51.980;5.934;2023-04-06T03:50:12;7.07;;;3.53;;
38479;SDS011;62333;51.980;5.934;2023-04-06T03:52:38;8.73;;;3.50;;
38479;SDS011;62333;51.980;5.934;2023-04-06T03:55:03;7.88;;;4.93;;
38479;SDS011;62333;51.980;5.934;2023-04-06T03:57:30;6.82;;;4.55;;
38479;SDS011;62333;51.980;5.934;2023-04-06T03:59:55;7.88;;;4.60;;
38479;SDS011;62333;51.980;5.934;2023-04-06T04:02:21;7.22;;;3.60;;
38479;SDS011;62333;51.980;5.934;2023-04-06T04:04:47;7.07;;;3.22;;
38479;SDS011;62333;51.980;5.934;2023-04-06T04:07:12;7.72;;;4.53;;
38479;SDS011;62333;51.980;5.934;2023-04-06T04:09:38;6.90;;;3.67;;
38479;SDS011;62333;51.980;5.934;2023-04-06T04:12:04;5.38;;;3.17;;
38479;SDS011;62333;51.980;5.934;2023-04-06T04:14:30;7.38;;;3.85;;
38479;SDS011;62333;51.980;5.934;2023-04-06T04:16:55;6.60;;;3.50;;
38479;SDS011;62333;51.980;5.934;2023-04-06T04:19:21;8.77;;;3.72;;
38479;SDS011;62333;51.980;5.934;2023-04-06T04:21:47;6.55;;;3.75;;
38479;SDS011;62333;51.980;5.934;2023-04-06T04:24:13;5.63;;;2.95;;
38479;SDS011;62333;51.980;5.934;2023-04-06T04:26:39;8.40;;;4.30;;
38479;SDS011;62333;51.980;5.934;2023-04-06T04:29:05;8.57;;;3.20;;
38479;SDS011;62333;51.980;5.934;2023-04-06T04:31:32;6.68;;;3.50;;
38479;SDS011;62333;51.980;5.934;2023-04-06T04:33:59;6.82;;;3.28;;
38479;SDS011;62333;51.980;5.934;2023-04-06T04:36:25;6.25;;;3.60;;
38479;SDS011;62333;51.980;5.934;2023-04-06T04:38:51;7.63;;;4.03;;
38479;SDS011;62333;51.980;5.934;2023-04-06T04:41:17;6.78;;;4.53;;
38479;SDS011;62333;51.980;5.934;2023-04-06T04:43:43;6.60;;;3.22;;
38479;SDS011;62333;51.980;5.934;2023-04-06T04:46:09;7.80;;;3.65;;
38479;SDS011;62333;51.980;5.934;2023-04-06T04:48:35;8.18;;;4.63;;
38479;SDS011;62333;51.980;5.934;2023-04-06T04:51:01;8.43;;;4.32;;
38479;SDS011;62333;51.980;5.934;2023-04-06T04:53:27;9.20;;;4.47;;
38479;SDS011;62333;51.980;5.934;2023-04-06T04:55:52;10.20;;;4.60;;
38479;SDS011;62333;51.980;5.934;2023-04-06T04:58:18;7.68;;;4.22;;
38479;SDS011;62333;51.980;5.934;2023-04-06T05:00:45;9.27;;;4.80;;
38479;SDS011;62333;51.980;5.934;2023-04-06T05:03:24;7.53;;;3.67;;
38479;SDS011;62333;51.980;5.934;2023-04-06T05:05:51;9.63;;;4.50;;
38479;SDS011;62333;51.980;5.934;2023-04-06T05:08:17;9.45;;;4.22;;
38479;SDS011;62333;51.980;5.934;2023-04-06T05:10:43;8.63;;;4.70;;
38479;SDS011;62333;51.980;5.934;2023-04-06T05:13:10;10.15;;;6.20;;
38479;SDS011;62333;51.980;5.934;2023-04-06T05:15:36;11.80;;;6.30;;
38479;SDS011;62333;51.980;5.934;2023-04-06T05:18:05;9.55;;;5.28;;
38479;SDS011;62333;51.980;5.934;2023-04-06T05:20:32;8.35;;;4.50;;
38479;SDS011;62333;51.980;5.934;2023-04-06T05:22:58;7.90;;;3.65;;
38479;SDS011;62333;51.980;5.934;2023-04-06T05:25:23;11.27;;;4.57;;
38479;SDS011;62333;51.980;5.934;2023-04-06T05:27:49;10.20;;;4.53;;
38479;SDS011;62333;51.980;5.934;2023-04-06T05:30:15;10.70;;;4.68;;
38479;SDS011;62333;51.980;5.934;2023-04-06T05:32:41;7.20;;;4.63;;
38479;SDS011;62333;51.980;5.934;2023-04-06T05:35:08;7.90;;;4.43;;
38479;SDS011;62333;51.980;5.934;2023-04-06T05:37:34;8.55;;;3.95;;
38479;SDS011;62333;51.980;5.934;2023-04-06T05:40:00;7.15;;;3.75;;
38479;SDS011;62333;51.980;5.934;2023-04-06T05:42:26;10.48;;;4.10;;
38479;SDS011;62333;51.980;5.934;2023-04-06T05:44:52;11.80;;;5.57;;
38479;SDS011;62333;51.980;5.934;2023-04-06T05:47:17;12.55;;;5.95;;
38479;SDS011;62333;51.980;5.934;2023-04-06T05:49:43;10.23;;;5.63;;
38479;SDS011;62333;51.980;5.934;2023-04-06T05:52:09;13.27;;;5.18;;
38479;SDS011;62333;51.980;5.934;2023-04-06T05:54:36;12.27;;;6.03;;
38479;SDS011;62333;51.980;5.934;2023-04-06T05:57:02;12.18;;;7.10;;
38479;SDS011;62333;51.980;5.934;2023-04-06T05:59:30;9.00;;;5.22;;
38479;SDS011;62333;51.980;5.934;2023-04-06T06:01:56;13.43;;;6.05;;
38479;SDS011;62333;51.980;5.934;2023-04-06T06:04:22;12.55;;;6.32;;
38479;SDS011;62333;51.980;5.934;2023-04-06T06:06:47;13.32;;;6.22;;
38479;SDS011;62333;51.980;5.934;2023-04-06T06:09:13;12.20;;;6.10;;
38479;SDS011;62333;51.980;5.934;2023-04-06T06:11:39;11.63;;;6.15;;
38479;SDS011;62333;51.980;5.934;2023-04-06T06:14:06;10.05;;;5.97;;
38479;SDS011;62333;51.980;5.934;2023-04-06T06:16:32;10.30;;;5.38;;
38479;SDS011;62333;51.980;5.934;2023-04-06T06:18:57;10.30;;;5.75;;
38479;SDS011;62333;51.980;5.934;2023-04-06T06:21:23;12.18;;;6.65;;
38479;SDS011;62333;51.980;5.934;2023-04-06T06:23:49;9.50;;;5.57;;
38479;SDS011;62333;51.980;5.934;2023-04-06T06:26:15;13.88;;;6.65;;
38479;SDS011;62333;51.980;5.934;2023-04-06T06:28:41;8.95;;;5.93;;
38479;SDS011;62333;51.980;5.934;2023-04-06T06:31:06;12.50;;;6.72;;
38479;SDS011;62333;51.980;5.934;2023-04-06T06:33:32;14.85;;;7.60;;
38479;SDS011;62333;51.980;5.934;2023-04-06T06:35:58;13.60;;;6.75;;
38479;SDS011;62333;51.980;5.934;2023-04-06T06:38:24;15.13;;;6.93;;
38479;SDS011;62333;51.980;5.934;2023-04-06T06:40:50;14.98;;;7.45;;
38479;SDS011;62333;51.980;5.934;2023-04-06T06:43:15;12.25;;;6.60;;
38479;SDS011;62333;51.980;5.934;2023-04-06T06:45:41;15.35;;;8.25;;
38479;SDS011;62333;51.980;5.934;2023-04-06T06:48:07;10.85;;;6.32;;
38479;SDS011;62333;51.980;5.934;2023-04-06T06:50:33;14.65;;;6.30;;
38479;SDS011;62333;51.980;5.934;2023-04-06T06:52:58;10.80;;;6.53;;
38479;SDS011;62333;51.980;5.934;2023-04-06T06:55:24;14.65;;;6.30;;
38479;SDS011;62333;51.980;5.934;2023-04-06T06:57:52;11.38;;;6.30;;
38479;SDS011;62333;51.980;5.934;2023-04-06T07:00:18;12.13;;;7.43;;
38479;SDS011;62333;51.980;5.934;2023-04-06T07:02:46;11.13;;;7.25;;
38479;SDS011;62333;51.980;5.934;2023-04-06T07:05:12;14.23;;;7.25;;
38479;SDS011;62333;51.980;5.934;2023-04-06T07:07:38;13.25;;;7.32;;
38479;SDS011;62333;51.980;5.934;2023-04-06T07:10:04;10.93;;;6.57;;
38479;SDS011;62333;51.980;5.934;2023-04-06T07:12:30;13.35;;;6.68;;
38479;SDS011;62333;51.980;5.934;2023-04-06T07:14:56;14.43;;;7.43;;
38479;SDS011;62333;51.980;5.934;2023-04-06T07:17:21;11.43;;;6.57;;
38479;SDS011;62333;51.980;5.934;2023-04-06T07:19:47;12.38;;;7.30;;
38479;SDS011;62333;51.980;5.934;2023-04-06T07:22:13;11.05;;;7.35;;
38479;SDS011;62333;51.980;5.934;2023-04-06T07:24:39;9.45;;;6.60;;
38479;SDS011;62333;51.980;5.934;2023-04-06T07:27:05;13.55;;;9.60;;
38479;SDS011;62333;51.980;5.934;2023-04-06T07:29:30;13.00;;;7.05;;
38479;SDS011;62333;51.980;5.934;2023-04-06T07:31:56;9.60;;;6.32;;
38479;SDS011;62333;51.980;5.934;2023-04-06T07:34:22;11.38;;;6.00;;
38479;SDS011;62333;51.980;5.934;2023-04-06T07:36:48;13.32;;;7.60;;
38479;SDS011;62333;51.980;5.934;2023-04-06T07:39:13;12.63;;;8.13;;
38479;SDS011;62333;51.980;5.934;2023-04-06T07:41:39;12.43;;;7.28;;
38479;SDS011;62333;51.980;5.934;2023-04-06T07:44:05;12.90;;;7.75;;
38479;SDS011;62333;51.980;5.934;2023-04-06T07:46:31;13.20;;;8.65;;
38479;SDS011;62333;51.980;5.934;2023-04-06T07:48:57;19.70;;;9.77;;
38479;SDS011;62333;51.980;5.934;2023-04-06T07:51:26;15.02;;;9.48;;
38479;SDS011;62333;51.980;5.934;2023-04-06T07:53:51;15.40;;;8.60;;
38479;SDS011;62333;51.980;5.934;2023-04-06T07:56:17;15.45;;;8.57;;
38479;SDS011;62333;51.980;5.934;2023-04-06T07:58:43;20.33;;;10.27;;
38479;SDS011;62333;51.980;5.934;2023-04-06T08:01:09;13.90;;;8.10;;
38479;SDS011;62333;51.980;5.934;2023-04-06T08:03:35;14.15;;;8.02;;
38479;SDS011;62333;51.980;5.934;2023-04-06T08:06:02;14.05;;;9.25;;
38479;SDS011;62333;51.980;5.934;2023-04-06T08:08:28;16.00;;;9.38;;
38479;SDS011;62333;51.980;5.934;2023-04-06T08:10:54;15.45;;;9.13;;
38479;SDS011;62333;51.980;5.934;2023-04-06T08:13:20;13.65;;;8.05;;
38479;SDS011;62333;51.980;5.934;2023-04-06T08:15:46;18.85;;;8.90;;
38479;SDS011;62333;51.980;5.934;2023-04-06T08:18:12;14.43;;;8.05;;
38479;SDS011;62333;51.980;5.934;2023-04-06T08:20:38;12.23;;;6.88;;
38479;SDS011;62333;51.980;5.934;2023-04-06T08:23:04;15.27;;;8.07;;
38479;SDS011;62333;51.980;5.934;2023-04-06T08:25:31;15.68;;;9.18;;
38479;SDS011;62333;51.980;5.934;2023-04-06T08:27:58;14.13;;;7.47;;
38479;SDS011;62333;51.980;5.934;2023-04-06T08:30:24;13.90;;;7.65;;
38479;SDS011;62333;51.980;5.934;2023-04-06T08:32:50;17.98;;;10.38;;
38479;SDS011;62333;51.980;5.934;2023-04-06T08:35:16;16.27;;;9.98;;
38479;SDS011;62333;51.980;5.934;2023-04-06T08:37:42;15.68;;;9.00;;
38479;SDS011;62333;51.980;5.934;2023-04-06T08:40:07;17.80;;;8.75;;
38479;SDS011;62333;51.980;5.934;2023-04-06T08:42:33;17.70;;;8.90;;
38479;SDS011;62333;51.980;5.934;2023-04-06T08:45:07;18.75;;;10.02;;
38479;SDS011;62333;51.980;5.934;2023-04-06T08:47:34;22.08;;;8.07;;
38479;SDS011;62333;51.980;5.934;2023-04-06T08:50:03;14.90;;;9.98;;
38479;SDS011;62333;51.980;5.934;2023-04-06T08:52:29;12.50;;;6.75;;
38479;SDS011;62333;51.980;5.934;2023-04-06T08:54:57;13.60;;;7.90;;
38479;SDS011;62333;51.980;5.934;2023-04-06T08:57:23;22.08;;;10.95;;
38479;SDS011;62333;51.980;5.934;2023-04-06T08:59:51;16.35;;;10.07;;
38479;SDS011;62333;51.980;5.934;2023-04-06T09:02:18;17.27;;;10.05;;
38479;SDS011;62333;51.980;5.934;2023-04-06T09:04:48;14.85;;;8.73;;
38479;SDS011;62333;51.980;5.934;2023-04-06T09:07:17;17.10;;;8.88;;
38479;SDS011;62333;51.980;5.934;2023-04-06T09:09:43;16.88;;;10.90;;
38479;SDS011;62333;51.980;5.934;2023-04-06T09:12:28;15.45;;;8.60;;
38479;SDS011;62333;51.980;5.934;2023-04-06T09:14:55;14.60;;;8.43;;
38479;SDS011;62333;51.980;5.934;2023-04-06T09:17:22;13.13;;;8.50;;
38479;SDS011;62333;51.980;5.934;2023-04-06T09:19:49;18.25;;;11.90;;
38479;SDS011;62333;51.980;5.934;2023-04-06T09:22:15;21.08;;;11.80;;
38479;SDS011;62333;51.980;5.934;2023-04-06T09:27:08;14.63;;;9.68;;
38479;SDS011;62333;51.980;5.934;2023-04-06T09:29:34;11.90;;;7.47;;
38479;SDS011;62333;51.980;5.934;2023-04-06T09:32:05;21.55;;;11.15;;
38479;SDS011;62333;51.980;5.934;2023-04-06T09:34:31;13.70;;;8.35;;
38479;SDS011;62333;51.980;5.934;2023-04-06T09:36:58;18.05;;;10.38;;
38479;SDS011;62333;51.980;5.934;2023-04-06T09:39:24;18.10;;;9.90;;
38479;SDS011;62333;51.980;5.934;2023-04-06T09:41:51;15.35;;;9.50;;
38479;SDS011;62333;51.980;5.934;2023-04-06T09:44:17;14.13;;;9.93;;
38479;SDS011;62333;51.980;5.934;2023-04-06T09:46:45;17.13;;;11.30;;
38479;SDS011;62333;51.980;5.934;2023-04-06T09:49:12;19.80;;;11.23;;
38479;SDS011;62333;51.980;5.934;2023-04-06T09:54:08;18.27;;;10.45;;
38479;SDS011;62333;51.980;5.934;2023-04-06T09:56:43;20.90;;;12.07;;
38479;SDS011;62333;51.980;5.934;2023-04-06T10:02:15;15.65;;;10.20;;
38479;SDS011;62333;51.980;5.934;2023-04-06T10:07:32;17.08;;;10.60;;
38479;SDS011;62333;51.980;5.934;2023-04-06T10:09:58;19.25;;;12.02;;
38479;SDS011;62333;51.980;5.934;2023-04-06T10:12:27;17.98;;;10.52;;
38479;SDS011;62333;51.980;5.934;2023-04-06T10:14:52;20.45;;;11.80;;
38479;SDS011;62333;51.980;5.934;2023-04-06T10:17:19;17.52;;;10.95;;
38479;SDS011;62333;51.980;5.934;2023-04-06T10:23:29;23.35;;;13.90;;
38479;SDS011;62333;51.980;5.934;2023-04-06T10:25:57;25.17;;;13.43;;
38479;SDS011;62333;51.980;5.934;2023-04-06T10:28:24;19.83;;;10.83;;
38479;SDS011;62333;51.980;5.934;2023-04-06T10:30:57;20.95;;;10.13;;
38479;SDS011;62333;51.980;5.934;2023-04-06T10:33:24;16.77;;;9.30;;
38479;SDS011;62333;51.980;5.934;2023-04-06T10:35:50;15.55;;;9.75;;
38479;SDS011;62333;51.980;5.934;2023-04-06T10:38:16;17.70;;;11.10;;
38479;SDS011;62333;51.980;5.934;2023-04-06T10:40:46;16.83;;;10.43;;
38479;SDS011;62333;51.980;5.934;2023-04-06T10:43:19;17.30;;;11.43;;
38479;SDS011;62333;51.980;5.934;2023-04-06T10:45:57;17.75;;;10.20;;
38479;SDS011;62333;51.980;5.934;2023-04-06T10:48:24;13.40;;;8.10;;
38479;SDS011;62333;51.980;5.934;2023-04-06T10:51:00;14.15;;;7.90;;
38479;SDS011;62333;51.980;5.934;2023-04-06T10:53:27;14.32;;;8.20;;
38479;SDS011;62333;51.980;5.934;2023-04-06T10:55:54;13.23;;;8.55;;
38479;SDS011;62333;51.980;5.934;2023-04-06T10:58:24;14.07;;;7.97;;
38479;SDS011;62333;51.980;5.934;2023-04-06T11:00:53;11.95;;;8.40;;
38479;SDS011;62333;51.980;5.934;2023-04-06T11:03:20;14.50;;;9.43;;
38479;SDS011;62333;51.980;5.934;2023-04-06T11:05:49;19.30;;;9.55;;
38479;SDS011;62333;51.980;5.934;2023-04-06T11:08:23;12.13;;;7.72;;
38479;SDS011;62333;51.980;5.934;2023-04-06T11:11:03;15.15;;;9.05;;
38479;SDS011;62333;51.980;5.934;2023-04-06T11:13:40;12.13;;;7.55;;
38479;SDS011;62333;51.980;5.934;2023-04-06T11:16:07;13.48;;;8.05;;
38479;SDS011;62333;51.980;5.934;2023-04-06T11:18:38;17.95;;;10.23;;
38479;SDS011;62333;51.980;5.934;2023-04-06T11:21:11;12.68;;;7.93;;
38479;SDS011;62333;51.980;5.934;2023-04-06T11:23:36;11.35;;;6.65;;
38479;SDS011;62333;51.980;5.934;2023-04-06T11:26:02;16.05;;;7.72;;
38479;SDS011;62333;51.980;5.934;2023-04-06T11:28:28;15.95;;;8.68;;
38479;SDS011;62333;51.980;5.934;2023-04-06T11:30:54;11.18;;;7.22;;
38479;SDS011;62333;51.980;5.934;2023-04-06T11:33:21;9.20;;;6.88;;
38479;SDS011;62333;51.980;5.934;2023-04-06T11:35:49;10.73;;;6.90;;
38479;SDS011;62333;51.980;5.934;2023-04-06T11:38:17;16.33;;;9.75;;
38479;SDS011;62333;51.980;5.934;2023-04-06T11:40:45;17.25;;;8.43;;
38479;SDS011;62333;51.980;5.934;2023-04-06T11:43:11;16.30;;;9.23;;
38479;SDS011;62333;51.980;5.934;2023-04-06T11:45:43;13.27;;;8.02;;
38479;SDS011;62333;51.980;5.934;2023-04-06T11:50:42;11.48;;;7.38;;
38479;SDS011;62333;51.980;5.934;2023-04-06T11:53:11;8.25;;;4.80;;
38479;SDS011;62333;51.980;5.934;2023-04-06T11:55:39;12.23;;;6.93;;
38479;SDS011;62333;51.980;5.934;2023-04-06T11:58:05;12.07;;;8.13;;
38479;SDS011;62333;51.980;5.934;2023-04-06T12:00:32;11.02;;;5.75;;
38479;SDS011;62333;51.980;5.934;2023-04-06T12:02:59;11.20;;;7.28;;
38479;SDS011;62333;51.980;5.934;2023-04-06T12:05:26;11.05;;;6.53;;
38479;SDS011;62333;51.980;5.934;2023-04-06T12:07:53;8.77;;;5.90;;
38479;SDS011;62333;51.980;5.934;2023-04-06T12:10:19;8.60;;;5.85;;
38479;SDS011;62333;51.980;5.934;2023-04-06T12:12:44;8.88;;;6.32;;
38479;SDS011;62333;51.980;5.934;2023-04-06T12:15:10;8.60;;;5.60;;
38479;SDS011;62333;51.980;5.934;2023-04-06T12:17:36;6.35;;;3.92;;
38479;SDS011;62333;51.980;5.934;2023-04-06T12:20:02;8.50;;;4.68;;
38479;SDS011;62333;51.980;5.934;2023-04-06T12:22:28;9.55;;;6.88;;
38479;SDS011;62333;51.980;5.934;2023-04-06T12:24:54;11.32;;;7.65;;
38479;SDS011;62333;51.980;5.934;2023-04-06T12:27:20;10.65;;;6.07;;
38479;SDS011;62333;51.980;5.934;2023-04-06T12:29:47;10.68;;;6.57;;
38479;SDS011;62333;51.980;5.934;2023-04-06T12:32:12;11.13;;;6.32;;
38479;SDS011;62333;51.980;5.934;2023-04-06T12:34:38;9.00;;;5.55;;
38479;SDS011;62333;51.980;5.934;2023-04-06T12:37:04;9.85;;;6.28;;
38479;SDS011;62333;51.980;5.934;2023-04-06T12:39:30;8.57;;;5.63;;
38479;SDS011;62333;51.980;5.934;2023-04-06T12:41:55;9.73;;;6.10;;
38479;SDS011;62333;51.980;5.934;2023-04-06T12:44:22;9.35;;;5.30;;
38479;SDS011;62333;51.980;5.934;2023-04-06T12:46:48;7.05;;;4.40;;
38479;SDS011;62333;51.980;5.934;2023-04-06T12:49:13;8.38;;;4.90;;
38479;SDS011;62333;51.980;5.934;2023-04-06T12:51:41;5.75;;;3.47;;
38479;SDS011;62333;51.980;5.934;2023-04-06T12:54:07;7.38;;;4.00;;
38479;SDS011;62333;51.980;5.934;2023-04-06T12:56:33;8.40;;;4.68;;
38479;SDS011;62333;51.980;5.934;2023-04-06T12:58:58;9.20;;;4.20;;
38479;SDS011;62333;51.980;5.934;2023-04-06T13:01:24;7.13;;;4.43;;
38479;SDS011;62333;51.980;5.934;2023-04-06T13:03:51;7.90;;;4.55;;
38479;SDS011;62333;51.980;5.934;2023-04-06T13:06:17;11.73;;;5.82;;
38479;SDS011;62333;51.980;5.934;2023-04-06T13:08:42;9.80;;;4.53;;
38479;SDS011;62333;51.980;5.934;2023-04-06T13:11:08;8.85;;;4.03;;
38479;SDS011;62333;51.980;5.934;2023-04-06T13:13:34;9.88;;;4.72;;
38479;SDS011;62333;51.980;5.934;2023-04-06T13:16:02;6.13;;;3.25;;
38479;SDS011;62333;51.980;5.934;2023-04-06T13:18:30;7.43;;;4.63;;
38479;SDS011;62333;51.980;5.934;2023-04-06T13:20:57;10.77;;;5.25;;
38479;SDS011;62333;51.980;5.934;2023-04-06T13:23:24;6.30;;;3.78;;
38479;SDS011;62333;51.980;5.934;2023-04-06T13:25:57;7.57;;;4.65;;
38479;SDS011;62333;51.980;5.934;2023-04-06T13:28:28;9.20;;;4.93;;
38479;SDS011;62333;51.980;5.934;2023-04-06T13:30:54;7.82;;;3.88;;
38479;SDS011;62333;51.980;5.934;2023-04-06T13:33:23;5.88;;;3.17;;
38479;SDS011;62333;51.980;5.934;2023-04-06T13:35:49;6.82;;;3.75;;
38479;SDS011;62333;51.980;5.934;2023-04-06T13:38:15;6.88;;;4.82;;
38479;SDS011;62333;51.980;5.934;2023-04-06T13:40:41;7.90;;;3.45;;
38479;SDS011;62333;51.980;5.934;2023-04-06T13:43:07;9.50;;;5.38;;
38479;SDS011;62333;51.980;5.934;2023-04-06T13:45:33;8.43;;;4.65;;
38479;SDS011;62333;51.980;5.934;2023-04-06T13:47:59;12.40;;;5.85;;
38479;SDS011;62333;51.980;5.934;2023-04-06T13:50:25;8.82;;;5.22;;
38479;SDS011;62333;51.980;5.934;2023-04-06T13:52:52;9.30;;;5.53;;
38479;SDS011;62333;51.980;5.934;2023-04-06T13:55:17;13.82;;;7.00;;
38479;SDS011;62333;51.980;5.934;2023-04-06T13:57:43;11.00;;;7.00;;
38479;SDS011;62333;51.980;5.934;2023-04-06T14:00:09;10.77;;;6.68;;
38479;SDS011;62333;51.980;5.934;2023-04-06T14:02:37;9.55;;;6.07;;
38479;SDS011;62333;51.980;5.934;2023-04-06T14:05:04;9.98;;;5.68;;
38479;SDS011;62333;51.980;5.934;2023-04-06T14:07:30;16.38;;;9.73;;
38479;SDS011;62333;51.980;5.934;2023-04-06T14:09:55;10.00;;;6.65;;
38479;SDS011;62333;51.980;5.934;2023-04-06T14:12:21;13.10;;;6.63;;
38479;SDS011;62333;51.980;5.934;2023-04-06T14:14:47;10.30;;;5.80;;
38479;SDS011;62333;51.980;5.934;2023-04-06T14:17:12;9.40;;;6.70;;
38479;SDS011;62333;51.980;5.934;2023-04-06T14:19:38;11.75;;;6.97;;
38479;SDS011;62333;51.980;5.934;2023-04-06T14:22:05;13.68;;;7.82;;
38479;SDS011;62333;51.980;5.934;2023-04-06T14:24:30;13.68;;;8.40;;
38479;SDS011;62333;51.980;5.934;2023-04-06T14:26:56;12.95;;;7.13;;
38479;SDS011;62333;51.980;5.934;2023-04-06T14:29:22;11.68;;;7.13;;
38479;SDS011;62333;51.980;5.934;2023-04-06T14:31:48;11.23;;;6.53;;
38479;SDS011;62333;51.980;5.934;2023-04-06T14:34:14;12.73;;;7.18;;
38479;SDS011;62333;51.980;5.934;2023-04-06T14:36:41;9.57;;;5.78;;
38479;SDS011;62333;51.980;5.934;2023-04-06T14:39:07;14.27;;;8.30;;
38479;SDS011;62333;51.980;5.934;2023-04-06T14:41:34;10.43;;;7.35;;
38479;SDS011;62333;51.980;5.934;2023-04-06T14:44:01;12.93;;;7.20;;
38479;SDS011;62333;51.980;5.934;2023-04-06T14:46:27;12.07;;;8.15;;
38479;SDS011;62333;51.980;5.934;2023-04-06T14:48:56;11.77;;;7.25;;
38479;SDS011;62333;51.980;5.934;2023-04-06T14:51:25;12.23;;;8.18;;
38479;SDS011;62333;51.980;5.934;2023-04-06T14:53:53;9.27;;;5.80;;